createdAt,value
2023-03-30T04:01:15.869Z,2.67
2023-03-30T04:03:42.699Z,2.20
2023-03-30T04:06:09.400Z,2.38
2023-03-30T04:08:36.568Z,1.98
2023-03-30T04:11:08.732Z,2.53
2023-03-30T04:13:36.330Z,2.10
2023-03-30T04:16:03.129Z,2.95
2023-03-30T04:18:33.501Z,3.08
2023-03-30T04:21:07.146Z,2.65
2023-03-30T04:23:36.922Z,3.35
2023-03-30T04:26:04.831Z,3.22
2023-03-30T04:28:32.988Z,2.35
2023-03-30T04:31:02.342Z,3.63
2023-03-30T04:33:29.622Z,3.80
2023-03-30T04:35:56.883Z,3.85
2023-03-30T04:38:23.601Z,4.20
2023-03-30T04:40:52.077Z,3.45
2023-03-30T04:43:20.261Z,3.70
2023-03-30T04:45:51.544Z,3.38
2023-03-30T04:48:19.589Z,2.55
2023-03-30T04:50:48.059Z,3.58
2023-03-30T04:53:16.341Z,2.88
2023-03-30T04:55:47.024Z,4.35
2023-03-30T04:58:14.096Z,3.95
2023-03-30T05:00:41.273Z,4.32
2023-03-30T05:03:08.627Z,3.05
2023-03-30T05:05:35.453Z,3.85
2023-03-30T05:08:02.175Z,4.10
2023-03-30T05:10:28.852Z,3.63
2023-03-30T05:12:56.600Z,3.40
2023-03-30T05:15:23.423Z,3.40
2023-03-30T05:17:50.230Z,3.38
2023-03-30T05:20:18.210Z,3.38
2023-03-30T05:22:46.894Z,3.42
2023-03-30T05:25:13.705Z,3.50
2023-03-30T05:27:40.428Z,6.10
2023-03-30T05:30:08.311Z,2.85
2023-03-30T05:32:35.235Z,5.57
2023-03-30T05:35:02.067Z,5.55
2023-03-30T05:37:28.733Z,3.60
2023-03-30T05:39:55.397Z,4.47
2023-03-30T05:42:22.248Z,5.38
2023-03-30T05:44:48.958Z,3.38
2023-03-30T05:47:16.815Z,4.97
2023-03-30T05:49:43.987Z,4.47
2023-03-30T05:52:11.585Z,5.18
2023-03-30T05:54:38.278Z,4.75
2023-03-30T05:57:05.021Z,6.03
2023-03-30T05:59:31.778Z,3.05
2023-03-30T06:01:58.602Z,5.30
2023-03-30T06:04:27.211Z,6.03
2023-03-30T06:06:54.186Z,4.22
2023-03-30T06:09:20.840Z,5.20
2023-03-30T06:11:47.557Z,4.35
2023-03-30T06:14:14.549Z,4.88
2023-03-30T06:16:41.535Z,6.47
2023-03-30T06:19:08.430Z,5.38
2023-03-30T06:21:35.261Z,5.25
2023-03-30T06:24:01.968Z,5.53
2023-03-30T06:26:29.469Z,4.28
2023-03-30T06:28:56.212Z,5.10
2023-03-30T06:31:22.970Z,4.15
2023-03-30T06:33:51.172Z,6.75
2023-03-30T06:36:18.625Z,6.20
2023-03-30T06:38:45.489Z,5.20
2023-03-30T06:41:12.834Z,4.60
2023-03-30T06:43:40.607Z,4.57
2023-03-30T06:46:08.419Z,5.43
2023-03-30T06:48:35.817Z,5.53
2023-03-30T06:51:04.029Z,5.40
2023-03-30T06:53:31.462Z,4.20
2023-03-30T06:56:00.128Z,5.25
2023-03-30T06:58:28.220Z,5.13
2023-03-30T07:00:55.765Z,4.75
2023-03-30T07:03:23.023Z,3.35
2023-03-30T07:05:50.852Z,5.13
2023-03-30T07:08:19.017Z,4.18
2023-03-30T07:10:47.917Z,4.60
2023-03-30T07:13:16.553Z,4.90
2023-03-30T07:15:44.279Z,3.75
2023-03-30T07:18:11.068Z,4.93
2023-03-30T07:20:37.800Z,4.07
2023-03-30T07:23:04.564Z,4.30
2023-03-30T07:25:31.552Z,4.35
2023-03-30T07:27:58.673Z,6.25
2023-03-30T07:30:26.144Z,5.00
2023-03-30T07:32:53.941Z,5.80
2023-03-30T07:35:21.675Z,4.38
2023-03-30T07:37:50.810Z,5.57
2023-03-30T07:40:18.703Z,6.32
2023-03-30T07:42:45.578Z,5.18
2023-03-30T07:45:15.617Z,4.50
2023-03-30T07:47:43.469Z,4.55
2023-03-30T07:50:10.401Z,3.55
2023-03-30T07:52:37.862Z,4.13
2023-03-30T07:55:05.076Z,4.85
2023-03-30T07:57:32.101Z,4.95
2023-03-30T07:59:58.923Z,4.53
2023-03-30T08:02:25.735Z,4.57
2023-03-30T08:04:52.940Z,4.53
2023-03-30T08:07:22.565Z,5.00
2023-03-30T08:09:49.693Z,4.50
2023-03-30T08:12:16.382Z,4.70
2023-03-30T08:14:43.360Z,4.70
2023-03-30T08:17:11.577Z,5.05
2023-03-30T08:19:39.404Z,4.50
2023-03-30T08:22:06.086Z,5.60
2023-03-30T08:24:32.771Z,4.43
2023-03-30T08:26:59.514Z,4.55
2023-03-30T08:29:26.224Z,4.63
2023-03-30T08:31:53.158Z,4.63
2023-03-30T08:34:19.959Z,5.22
2023-03-30T08:36:46.713Z,4.38
2023-03-30T08:39:13.433Z,4.55
2023-03-30T08:41:53.651Z,4.50
2023-03-30T08:44:31.621Z,5.65
2023-03-30T08:47:00.896Z,5.13
2023-03-30T08:49:31.898Z,4.57
2023-03-30T08:52:03.039Z,4.00
2023-03-30T08:54:32.443Z,3.75
2023-03-30T08:57:18.959Z,3.65
2023-03-30T09:00:16.103Z,4.50
2023-03-30T09:02:48.468Z,4.60
2023-03-30T09:05:32.276Z,6.25
2023-03-30T09:08:14.525Z,5.53
2023-03-30T09:10:46.763Z,4.72
2023-03-30T09:13:18.517Z,3.55
2023-03-30T09:16:18.791Z,3.58
2023-03-30T09:18:49.759Z,4.63
2023-03-30T09:21:18.749Z,4.07
2023-03-30T09:23:46.274Z,4.18
2023-03-30T09:26:22.254Z,4.78
2023-03-30T09:29:05.444Z,5.97
2023-03-30T09:31:51.756Z,4.65
2023-03-30T09:34:40.397Z,4.63
2023-03-30T09:37:22.437Z,5.22
2023-03-30T09:39:50.391Z,3.55
2023-03-30T09:42:22.045Z,4.95
2023-03-30T09:44:57.207Z,4.77
2023-03-30T09:47:36.650Z,5.43
2023-03-30T09:50:08.018Z,4.95
2023-03-30T09:52:38.766Z,4.65
2023-03-30T09:55:20.678Z,4.88
2023-03-30T09:57:48.942Z,4.47
2023-03-30T10:00:26.156Z,6.32
2023-03-30T10:03:03.810Z,4.90
2023-03-30T10:05:32.929Z,5.90
2023-03-30T10:08:03.131Z,4.30
2023-03-30T10:10:41.061Z,4.75
2023-03-30T10:13:19.607Z,5.05
2023-03-30T10:15:52.507Z,4.72
2023-03-30T10:18:26.791Z,6.05
2023-03-30T10:21:01.327Z,4.13
2023-03-30T10:23:33.395Z,4.40
2023-03-30T10:26:13.347Z,4.82
2023-03-30T10:28:45.652Z,3.80
2023-03-30T10:31:18.280Z,4.78
2023-03-30T10:33:45.706Z,5.25
2023-03-30T10:36:18.324Z,3.33
2023-03-30T10:38:46.162Z,4.47
2023-03-30T10:41:33.325Z,4.75
2023-03-30T10:44:28.991Z,4.00
2023-03-30T10:47:17.550Z,3.72
2023-03-30T10:50:02.221Z,4.10
2023-03-30T10:52:56.259Z,4.40
2023-03-30T10:55:41.921Z,4.05
2023-03-30T10:58:35.950Z,3.25
2023-03-30T11:01:13.580Z,5.30
2023-03-30T11:03:48.889Z,4.50
2023-03-30T11:06:28.462Z,3.67
2023-03-30T11:08:58.891Z,4.40
2023-03-30T11:11:39.505Z,3.70
2023-03-30T11:14:16.585Z,3.88
2023-03-30T11:17:00.125Z,4.38
2023-03-30T11:19:39.030Z,5.30
2023-03-30T11:22:26.233Z,3.83
2023-03-30T11:24:56.698Z,5.20
2023-03-30T11:27:32.033Z,4.70
2023-03-30T11:30:12.519Z,4.50
2023-03-30T11:32:53.457Z,4.18
2023-03-30T11:35:48.424Z,4.97
2023-03-30T11:38:27.613Z,4.85
2023-03-30T11:41:08.221Z,3.88
2023-03-30T11:43:40.473Z,3.97
2023-03-30T11:46:18.673Z,3.45
2023-03-30T11:49:04.271Z,4.55
2023-03-30T11:51:50.295Z,3.35
2023-03-30T11:54:38.195Z,3.53
2023-03-30T11:57:37.142Z,3.35
2023-03-30T12:00:26.751Z,3.38
2023-03-30T12:03:42.833Z,3.03
2023-03-30T12:06:24.140Z,3.50
2023-03-30T12:09:12.167Z,3.10
2023-03-30T12:11:56.341Z,3.83
2023-03-30T12:14:47.239Z,2.33
2023-03-30T12:17:33.449Z,3.33
2023-03-30T12:20:09.692Z,3.45
2023-03-30T12:22:42.282Z,3.65
2023-03-30T12:28:18.469Z,3.53
2023-03-30T12:30:52.829Z,2.92
2023-03-30T12:33:34.247Z,4.03
2023-03-30T12:36:26.165Z,3.33
2023-03-30T12:39:02.379Z,4.25
2023-03-30T12:41:42.181Z,3.97
2023-03-30T12:44:33.795Z,4.68
2023-03-30T12:47:21.549Z,4.32
2023-03-30T12:50:12.703Z,3.72
2023-03-30T12:52:57.891Z,5.00
2023-03-30T12:55:47.354Z,3.42
2023-03-30T12:58:39.180Z,2.88
2023-03-30T13:01:30.350Z,4.10
2023-03-30T13:04:31.947Z,4.43
2023-03-30T13:07:06.461Z,4.40
2023-03-30T13:09:58.269Z,5.18
2023-03-30T13:12:40.671Z,5.43
2023-03-30T13:15:16.854Z,3.45
2023-03-30T13:18:23.108Z,3.70
2023-03-30T13:20:59.113Z,4.32
2023-03-30T13:23:31.673Z,4.15
2023-03-30T13:28:39.115Z,3.97
2023-03-30T13:31:18.146Z,3.40
2023-03-30T13:33:49.902Z,2.78
2023-03-30T13:36:20.594Z,3.67
2023-03-30T13:38:59.693Z,3.63
2023-03-30T13:42:04.253Z,2.78
2023-03-30T13:44:36.930Z,3.22
2023-03-30T13:47:15.021Z,3.38
2023-03-30T13:50:00.790Z,2.97
2023-03-30T13:52:49.282Z,2.38
2023-03-30T13:55:26.325Z,2.90
2023-03-30T13:58:03.155Z,3.25
2023-03-30T14:00:40.130Z,3.55
2023-03-30T14:03:31.674Z,3.50
2023-03-30T14:06:04.442Z,3.33
2023-03-30T14:08:35.762Z,2.60
2023-03-30T14:11:08.686Z,2.88
2023-03-30T14:13:37.909Z,4.35
2023-03-30T14:16:06.786Z,4.00
2023-03-30T14:18:34.364Z,3.40
2023-03-30T14:21:04.089Z,3.38
2023-03-30T14:23:49.950Z,3.70
2023-03-30T14:26:24.906Z,4.30
2023-03-30T14:29:06.250Z,3.08
2023-03-30T14:31:41.775Z,4.30
2023-03-30T14:34:34.146Z,3.53
2023-03-30T14:37:12.582Z,3.10
2023-03-30T14:39:47.489Z,4.28
2023-03-30T14:42:30.150Z,3.95
2023-03-30T14:47:27.258Z,4.32
2023-03-30T14:49:57.487Z,3.85
2023-03-30T14:52:32.273Z,3.22
2023-03-30T14:55:07.432Z,3.17
2023-03-30T14:57:38.250Z,2.92
2023-03-30T15:00:17.693Z,2.83
2023-03-30T15:02:45.995Z,2.90
2023-03-30T15:05:20.917Z,2.13
2023-03-30T15:07:49.951Z,3.08
2023-03-30T15:10:37.205Z,2.55
2023-03-30T15:13:07.613Z,2.85
2023-03-30T15:15:35.271Z,3.50
2023-03-30T15:18:04.092Z,3.10
2023-03-30T15:20:32.033Z,4.13
2023-03-30T15:23:00.737Z,3.50
2023-03-30T15:25:35.595Z,3.50
2023-03-30T15:28:06.976Z,2.80
2023-03-30T15:30:39.789Z,3.40
2023-03-30T15:33:08.085Z,3.60
2023-03-30T15:35:36.972Z,4.18
2023-03-30T15:38:14.137Z,3.65
2023-03-30T15:40:43.492Z,2.83
2023-03-30T15:43:22.305Z,3.92
2023-03-30T15:45:55.210Z,3.85
2023-03-30T15:48:28.080Z,2.83
2023-03-30T15:51:02.870Z,3.67
2023-03-30T15:53:34.723Z,3.22
2023-03-30T15:56:03.375Z,3.60
2023-03-30T15:58:30.502Z,4.35
2023-03-30T16:00:57.632Z,3.67
2023-03-30T16:03:42.128Z,3.15
2023-03-30T16:06:13.229Z,2.78
2023-03-30T16:08:43.382Z,3.65
2023-03-30T16:11:11.369Z,3.15
2023-03-30T16:13:46.876Z,3.58
2023-03-30T16:16:15.401Z,3.33
2023-03-30T16:18:42.788Z,2.92
2023-03-30T16:21:11.013Z,3.13
2023-03-30T16:23:38.075Z,3.65
2023-03-30T16:26:06.139Z,3.95
2023-03-30T16:28:33.034Z,2.70
2023-03-30T16:31:03.966Z,3.28
2023-03-30T16:33:31.038Z,3.35
2023-03-30T16:35:58.007Z,3.15
2023-03-30T16:38:24.695Z,4.15
2023-03-30T16:40:58.513Z,4.63
2023-03-30T16:43:27.139Z,4.35
2023-03-30T16:45:53.879Z,3.25
2023-03-30T16:48:21.867Z,3.25
2023-03-30T16:50:57.562Z,2.60
2023-03-30T16:53:24.696Z,4.13
2023-03-30T16:55:52.138Z,4.20
2023-03-30T16:58:20.508Z,3.08
2023-03-30T17:00:51.185Z,3.28
2023-03-30T17:03:19.206Z,4.47
2023-03-30T17:05:48.600Z,2.58
2023-03-30T17:08:21.897Z,3.63
2023-03-30T17:10:48.769Z,3.72
2023-03-30T17:13:15.641Z,4.80
2023-03-30T17:15:42.637Z,3.47
2023-03-30T17:18:21.381Z,4.10
2023-03-30T17:20:52.011Z,4.10
2023-03-30T17:23:23.311Z,4.10
2023-03-30T17:25:50.875Z,5.82
2023-03-30T17:28:22.134Z,3.47
2023-03-30T17:30:50.405Z,5.22
2023-03-30T17:33:17.192Z,5.68
2023-03-30T17:35:50.511Z,4.47
2023-03-30T17:38:17.707Z,5.60
2023-03-30T17:40:46.125Z,3.88
2023-03-30T17:43:12.992Z,4.20
2023-03-30T17:45:40.365Z,3.40
2023-03-30T17:48:12.412Z,4.38
2023-03-30T17:50:43.596Z,4.63
2023-03-30T17:53:14.604Z,5.20
2023-03-30T17:55:41.572Z,4.32
2023-03-30T17:58:18.677Z,4.88
2023-03-30T18:00:46.918Z,4.53
2023-03-30T18:03:14.741Z,3.67
2023-03-30T18:05:41.743Z,4.22
2023-03-30T18:08:17.279Z,5.63
2023-03-30T18:10:47.794Z,4.80
2023-03-30T18:13:16.200Z,3.97
2023-03-30T18:15:43.423Z,4.28
2023-03-30T18:18:11.868Z,3.83
2023-03-30T18:20:44.629Z,3.85
2023-03-30T18:23:11.495Z,5.20
2023-03-30T18:25:38.227Z,4.85
2023-03-30T18:28:10.502Z,4.78
2023-03-30T18:30:38.557Z,4.28
2023-03-30T18:33:06.659Z,5.85
2023-03-30T18:35:35.607Z,5.05
2023-03-30T18:38:03.278Z,4.85
2023-03-30T18:40:38.826Z,5.97
2023-03-30T18:43:06.332Z,6.55
2023-03-30T18:45:37.556Z,5.45
2023-03-30T18:48:06.199Z,6.03
2023-03-30T18:50:38.384Z,5.63
2023-03-30T18:53:07.822Z,3.90
2023-03-30T18:55:37.099Z,5.53
2023-03-30T18:58:08.181Z,4.35
2023-03-30T19:00:35.488Z,4.70
2023-03-30T19:03:02.619Z,4.07
2023-03-30T19:05:31.358Z,6.28
2023-03-30T19:07:58.284Z,5.75
2023-03-30T19:10:35.888Z,5.10
2023-03-30T19:13:02.666Z,5.05
2023-03-30T19:15:35.061Z,4.80
2023-03-30T19:18:03.094Z,4.55
2023-03-30T19:20:31.934Z,6.13
2023-03-30T19:22:58.965Z,4.00
2023-03-30T19:25:28.031Z,5.10
2023-03-30T19:28:03.179Z,4.35
2023-03-30T19:30:36.717Z,5.35
2023-03-30T19:33:07.265Z,4.22
2023-03-30T19:35:34.616Z,5.95
2023-03-30T19:38:01.788Z,5.82
2023-03-30T19:40:28.544Z,4.68
2023-03-30T19:42:55.406Z,5.30
2023-03-30T19:45:23.906Z,5.75
2023-03-30T19:47:51.551Z,4.22
2023-03-30T19:50:20.326Z,5.03
2023-03-30T19:52:50.157Z,5.32
2023-03-30T19:55:18.230Z,4.80
2023-03-30T19:57:45.173Z,4.80
2023-03-30T20:00:15.885Z,5.57
2023-03-30T20:02:45.069Z,7.50
2023-03-30T20:05:15.892Z,4.68
2023-03-30T20:07:44.320Z,5.53
2023-03-30T20:10:14.936Z,4.30
2023-03-30T20:12:41.858Z,6.00
2023-03-30T20:15:09.662Z,5.97
2023-03-30T20:17:38.786Z,5.63
2023-03-30T20:20:08.716Z,4.15
2023-03-30T20:22:42.158Z,5.50
2023-03-30T20:25:11.606Z,5.13
2023-03-30T20:27:38.684Z,3.42
2023-03-30T20:30:06.518Z,3.92
2023-03-30T20:32:34.572Z,4.10
2023-03-30T20:35:01.643Z,4.00
2023-03-30T20:37:28.804Z,5.05
2023-03-30T20:40:03.634Z,6.30
2023-03-30T20:42:31.640Z,5.25
2023-03-30T20:44:59.426Z,5.40
2023-03-30T20:47:30.345Z,4.40
2023-03-30T20:49:58.257Z,5.88
2023-03-30T20:52:25.485Z,4.95
2023-03-30T20:54:52.854Z,4.63
2023-03-30T20:57:21.350Z,6.13
2023-03-30T20:59:48.591Z,5.10
2023-03-30T21:02:16.635Z,4.20
2023-03-30T21:04:44.315Z,5.15
2023-03-30T21:07:12.154Z,5.47
2023-03-30T21:09:39.323Z,6.07
2023-03-30T21:12:06.982Z,5.38
2023-03-30T21:14:33.649Z,5.97
2023-03-30T21:17:00.386Z,4.63
2023-03-30T21:19:27.092Z,5.35
2023-03-30T21:21:53.775Z,4.53
2023-03-30T21:24:20.522Z,6.15
2023-03-30T21:26:47.235Z,4.82
2023-03-30T21:29:13.975Z,5.43
2023-03-30T21:31:40.686Z,4.30
2023-03-30T21:34:09.064Z,3.47
2023-03-30T21:36:36.007Z,3.65
2023-03-30T21:39:02.843Z,1.80
2023-03-30T21:41:30.231Z,2.78
2023-03-30T21:43:57.004Z,3.03
2023-03-30T21:46:25.091Z,1.63
2023-03-30T21:48:54.059Z,3.20
2023-03-30T21:51:29.739Z,2.17
2023-03-30T21:53:57.715Z,2.78
2023-03-30T21:56:27.518Z,3.58
2023-03-30T21:58:54.310Z,3.33
2023-03-30T22:01:23.934Z,2.40
2023-03-30T22:03:51.710Z,2.05
2023-03-30T22:06:19.359Z,1.90
2023-03-30T22:08:46.895Z,2.35
2023-03-30T22:11:19.447Z,1.52
2023-03-30T22:16:22.169Z,1.95
2023-03-30T22:18:49.230Z,3.25
2023-03-30T22:21:18.746Z,2.67
2023-03-30T22:23:46.109Z,2.28
2023-03-30T22:26:13.606Z,2.08
2023-03-30T22:28:40.647Z,2.13
2023-03-30T22:31:08.595Z,2.70
2023-03-30T22:33:35.610Z,2.15
2023-03-30T22:36:03.251Z,3.40
2023-03-30T22:38:30.657Z,2.08
2023-03-30T22:41:05.410Z,2.25
2023-03-30T22:43:33.466Z,2.38
2023-03-30T22:46:00.171Z,2.22
2023-03-30T22:48:26.888Z,2.85
2023-03-30T22:50:53.597Z,2.08
2023-03-30T22:53:20.313Z,2.55
2023-03-30T22:55:47.935Z,2.17
2023-03-30T22:58:15.440Z,2.25
2023-03-30T23:00:42.472Z,2.53
2023-03-30T23:03:09.602Z,2.15
2023-03-30T23:05:37.245Z,2.38
2023-03-30T23:08:04.176Z,3.30
2023-03-30T23:10:33.757Z,1.92
2023-03-30T23:13:00.879Z,2.38
2023-03-30T23:15:29.200Z,3.78
2023-03-30T23:17:56.580Z,3.13
2023-03-30T23:20:23.395Z,3.40
2023-03-30T23:22:50.759Z,2.55
2023-03-30T23:25:17.677Z,2.58
2023-03-30T23:27:44.454Z,2.35
2023-03-30T23:30:11.729Z,1.90
2023-03-30T23:32:38.599Z,2.30
2023-03-30T23:35:05.782Z,2.90
2023-03-30T23:37:32.597Z,1.70
2023-03-30T23:40:01.700Z,2.50
2023-03-30T23:42:28.941Z,2.95
2023-03-30T23:44:55.915Z,2.70
2023-03-30T23:47:22.846Z,2.53
2023-03-30T23:49:49.750Z,2.30
2023-03-30T23:52:16.427Z,1.85
2023-03-30T23:54:43.088Z,2.60
2023-03-30T23:57:09.914Z,2.38
2023-03-30T23:59:37.386Z,1.98
